Time;durP1;ratioP1;P1;durP2;ratioP2;P2;SDS_P1;SDS_P2;PMS_P1;PMS_P2;Temp;Humidity;BMP_temperature;BMP_pressure;BME280_temperature;BME280_humidity;BME280_pressure;Samples;Min_cycle;Max_cycle;Signal;HPM_P1;HPM_P2
2022/02/18 00:00:05;;;;;;;6.72;2.13;;;;;;;13.63;40.96;100794.25;5010895;28;20049;-74
2022/02/18 00:02:31;;;;;;;6.45;1.85;;;;;;;13.63;41.29;100796.13;5012614;28;20062;-74
2022/02/18 00:04:58;;;;;;;7.60;1.95;;;;;;;13.64;41.48;100789.69;5010702;28;20093;-74
2022/02/18 00:07:28;;;;;;;5.07;1.63;;;;;;;13.65;41.35;100783.22;5011844;28;20050;-76
2022/02/18 00:09:54;;;;;;;5.75;1.60;;;;;;;13.65;41.06;100778.66;5009085;28;20073;-76
2022/02/18 00:12:21;;;;;;;4.95;1.77;;;;;;;13.66;41.26;100779.53;5010865;28;20625;-76
2022/02/18 00:14:50;;;;;;;5.55;1.73;;;;;;;13.66;40.91;100776.78;5007883;28;20111;-76
2022/02/18 00:17:17;;;;;;;6.03;2.30;;;;;;;13.66;41.14;100782.25;5010182;28;20046;-76
2022/02/18 00:19:44;;;;;;;8.55;2.03;;;;;;;13.65;41.54;100777.78;5008673;28;20081;-74
2022/02/18 00:22:10;;;;;;;5.80;1.85;;;;;;;13.65;41.28;100766.88;5010311;28;20073;-74
2022/02/18 00:24:37;;;;;;;8.50;2.00;;;;;;;13.66;41.29;100779.53;5009125;28;20064;-74
2022/02/18 00:27:04;;;;;;;7.68;1.98;;;;;;;13.66;41.34;100771.34;5009622;28;20122;-74
2022/02/18 00:29:31;;;;;;;7.88;2.30;;;;;;;13.64;41.63;100774.19;5009242;28;20531;-74
2022/02/18 00:31:57;;;;;;;10.10;2.60;;;;;;;13.64;41.49;100776.03;5009150;28;20141;-74
2022/02/18 00:34:24;;;;;;;7.97;2.88;;;;;;;13.62;41.48;100781.63;5009034;28;20085;-76
2022/02/18 00:36:51;;;;;;;7.45;2.28;;;;;;;13.60;41.77;100778.13;5007764;28;20046;-76
2022/02/18 00:39:17;;;;;;;8.63;2.03;;;;;;;13.60;41.79;100780.00;5007403;28;20049;-76
2022/02/18 00:41:44;;;;;;;5.85;2.00;;;;;;;13.58;41.94;100782.00;5010017;28;20045;-76
2022/02/18 00:44:10;;;;;;;5.68;2.10;;;;;;;13.58;42.06;100780.13;5008590;28;20088;-74
2022/02/18 00:46:37;;;;;;;7.47;1.80;;;;;;;13.58;41.85;100785.59;5009825;28;20140;-74
2022/02/18 00:49:04;;;;;;;5.63;1.65;;;;;;;13.60;41.83;100782.72;5008504;28;20084;-74
2022/02/18 00:51:30;;;;;;;6.28;1.98;;;;;;;13.60;42.22;100783.59;5009308;28;20406;-76
2022/02/18 00:53:57;;;;;;;7.28;2.10;;;;;;;13.60;42.06;100766.34;5008566;28;20058;-76
2022/02/18 00:56:24;;;;;;;10.05;2.30;;;;;;;13.61;42.38;100768.97;5007498;28;20046;-76
2022/02/18 00:58:50;;;;;;;8.43;2.08;;;;;;;13.62;42.24;100773.44;5008770;28;20128;-76
2022/02/18 01:01:17;;;;;;;9.13;2.30;;;;;;;13.63;42.46;100769.72;5016721;28;20052;-76
2022/02/18 01:03:43;;;;;;;10.23;2.30;;;;;;;13.64;42.26;100774.19;5007762;28;20058;-76
2022/02/18 01:06:10;;;;;;;9.40;1.95;;;;;;;13.65;42.29;100770.47;5009070;28;20100;-76
2022/02/18 01:08:37;;;;;;;8.30;2.40;;;;;;;13.67;42.41;100771.19;5002962;28;20046;-76
2022/02/18 01:11:04;;;;;;;7.18;2.00;;;;;;;13.69;42.22;100752.84;5008700;28;20480;-76
2022/02/18 01:13:32;;;;;;;5.93;2.00;;;;;;;13.73;42.64;100747.13;5008542;28;20058;-74
2022/02/18 01:15:58;;;;;;;7.43;1.98;;;;;;;13.72;42.28;100746.28;5008655;28;20580;-76
2022/02/18 01:18:25;;;;;;;8.10;2.10;;;;;;;13.75;42.29;100742.44;5007170;28;20065;-76
2022/02/18 01:20:52;;;;;;;9.52;2.40;;;;;;;13.76;42.45;100738.69;5009063;28;20138;-76
2022/02/18 01:23:18;;;;;;;5.97;1.90;;;;;;;13.76;42.37;100738.69;5008726;28;20084;-76
2022/02/18 01:25:45;;;;;;;7.32;2.28;;;;;;;13.78;42.53;100726.66;5006000;28;20073;-76
2022/02/18 01:28:12;;;;;;;10.73;2.22;;;;;;;13.78;42.45;100720.34;5007793;28;20061;-76
2022/02/18 01:30:38;;;;;;;9.50;2.15;;;;;;;13.79;42.67;100716.63;5008803;28;20088;-76
2022/02/18 01:33:05;;;;;;;6.95;2.58;;;;;;;13.79;42.39;100717.47;5008628;28;20050;-76
2022/02/18 01:35:33;;;;;;;8.45;2.25;;;;;;;13.81;42.63;100715.50;5008504;28;20054;-76
2022/02/18 01:38:01;;;;;;;5.65;1.58;;;;;;;13.80;42.58;100711.03;5007993;28;20129;-76
2022/02/18 01:40:30;;;;;;;8.18;1.80;;;;;;;13.81;42.71;100715.50;5007446;28;20092;-76
2022/02/18 01:42:57;;;;;;;5.85;1.77;;;;;;;13.83;42.37;100709.94;5008681;28;20053;-76
2022/02/18 01:45:24;;;;;;;6.80;1.88;;;;;;;13.82;42.21;100697.28;5007861;28;20143;-76
2022/02/18 01:47:51;;;;;;;8.00;2.20;;;;;;;13.83;42.76;100691.69;5007967;28;20082;-75
2022/02/18 01:50:19;;;;;;;7.47;2.03;;;;;;;13.83;42.51;100678.03;5008514;28;20056;-76
2022/02/18 01:52:48;;;;;;;5.35;1.98;;;;;;;13.85;42.29;100683.34;5009319;28;20105;-76
2022/02/18 01:55:16;;;;;;;6.22;1.65;;;;;;;13.85;42.15;100676.03;5006860;28;20149;-76
2022/02/18 01:57:53;;;;;;;7.28;2.08;;;;;;;13.87;42.94;100674.06;5008886;28;20045;-75
2022/02/18 02:00:23;;;;;;;7.43;1.70;;;;;;;13.87;42.54;100684.09;5004803;28;20297;-76
2022/02/18 02:02:50;;;;;;;6.20;2.00;;;;;;;13.86;42.62;100671.44;5008007;28;20052;-76
2022/02/18 02:05:18;;;;;;;8.00;3.00;;;;;;;13.85;42.71;100670.56;5008048;28;20081;-76
2022/02/18 02:07:45;;;;;;;6.22;1.80;;;;;;;13.86;42.40;100674.19;5008609;28;20112;-76
2022/02/18 02:10:13;;;;;;;8.70;2.15;;;;;;;13.88;42.34;100673.06;5007657;28;20664;-76
2022/02/18 02:12:50;;;;;;;7.93;2.10;;;;;;;13.90;42.84;100670.22;5009081;28;20081;-76
2022/02/18 02:15:19;;;;;;;9.95;2.25;;;;;;;13.89;42.70;100671.19;5006831;28;20092;-75
2022/02/18 02:17:46;;;;;;;6.80;1.80;;;;;;;13.89;42.75;100668.47;5005579;28;20125;-76
2022/02/18 02:20:13;;;;;;;6.55;2.08;;;;;;;13.89;42.55;100673.94;5006974;28;20120;-76
2022/02/18 02:22:40;;;;;;;7.75;1.98;;;;;;;13.91;42.62;100664.63;5008408;28;20046;-76
2022/02/18 02:25:07;;;;;;;8.98;2.38;;;;;;;13.90;42.62;100654.72;5006450;28;20065;-76
2022/02/18 02:27:35;;;;;;;7.85;1.70;;;;;;;13.92;42.63;100665.47;5008889;28;20504;-76
2022/02/18 02:30:05;;;;;;;8.35;1.80;;;;;;;13.92;42.98;100654.53;5008067;28;20066;-76
2022/02/18 02:32:31;;;;;;;8.25;2.47;;;;;;;13.92;43.12;100651.81;5008331;28;20456;-75
2022/02/18 02:34:58;;;;;;;9.38;2.42;;;;;;;13.92;43.18;100647.22;5007483;28;20448;-76
2022/02/18 02:37:25;;;;;;;8.43;1.65;;;;;;;13.92;42.78;100647.22;5008926;28;20084;-76
2022/02/18 02:39:51;;;;;;;8.23;2.22;;;;;;;13.92;42.84;100647.22;5010018;28;20568;-75
2022/02/18 02:42:18;;;;;;;7.75;1.95;;;;;;;13.94;42.84;100642.53;5016388;28;20085;-76
2022/02/18 02:44:44;;;;;;;7.63;2.03;;;;;;;13.94;42.84;100625.28;5011002;28;20050;-76
2022/02/18 02:47:11;;;;;;;9.27;2.47;;;;;;;13.94;42.82;100620.69;5012568;28;20049;-76
2022/02/18 02:49:38;;;;;;;11.02;2.70;;;;;;;13.94;43.23;100612.50;5010360;28;20060;-76
2022/02/18 02:52:04;;;;;;;8.30;2.33;;;;;;;13.95;43.19;100607.91;5011565;28;20493;-76
2022/02/18 02:54:31;;;;;;;9.20;2.28;;;;;;;13.97;43.11;100614.09;5009461;28;20085;-76
2022/02/18 02:56:58;;;;;;;7.32;2.65;;;;;;;13.97;43.14;100605.91;5009808;28;20081;-75
2022/02/18 02:59:25;;;;;;;10.30;2.55;;;;;;;13.96;43.06;100594.13;5010731;28;20050;-76
2022/02/18 03:01:51;;;;;;;9.30;2.28;;;;;;;13.97;43.02;100595.88;5011273;28;20049;-76
2022/02/18 03:04:19;;;;;;;8.27;2.63;;;;;;;13.97;43.31;100605.91;5011142;28;20112;-76
2022/02/18 03:06:46;;;;;;;10.18;2.25;;;;;;;13.98;42.81;100608.53;5009909;28;20128;-76
2022/02/18 03:09:32;;;;;;;8.10;2.40;;;;;;;13.97;43.09;100598.59;5006614;28;20054;-74
2022/02/18 03:11:58;;;;;;;10.23;2.10;;;;;;;13.98;43.18;100589.41;5011371;28;20560;-74
2022/02/18 03:14:25;;;;;;;12.98;2.72;;;;;;;13.98;42.95;100581.22;5010360;28;20093;-75
2022/02/18 03:16:52;;;;;;;7.03;2.17;;;;;;;13.98;43.32;100563.97;5010891;28;20049;-74
2022/02/18 03:19:18;;;;;;;10.20;2.80;;;;;;;13.99;43.20;100558.41;5010148;28;20078;-75
2022/02/18 03:21:45;;;;;;;5.60;2.10;;;;;;;13.98;43.13;100555.78;5011608;28;20085;-74
2022/02/18 03:24:12;;;;;;;7.03;2.38;;;;;;;13.98;43.28;100548.47;5010259;28;20545;-74
2022/02/18 03:26:38;;;;;;;6.47;1.85;;;;;;;13.98;43.21;100545.75;5010297;28;20109;-74
2022/02/18 03:29:05;;;;;;;6.65;1.95;;;;;;;13.98;43.26;100536.69;5008522;28;20123;-74
2022/02/18 03:31:31;;;;;;;6.93;2.22;;;;;;;13.97;43.29;100529.50;5010668;28;20092;-75
2022/02/18 03:33:58;;;;;;;7.65;1.83;;;;;;;13.97;43.32;100532.22;5010120;28;20074;-75
2022/02/18 03:36:24;;;;;;;9.25;2.10;;;;;;;13.96;43.22;100504.06;5009544;28;20125;-74
2022/02/18 03:38:54;;;;;;;9.50;2.17;;;;;;;13.96;42.95;100500.47;5012684;28;20069;-74
2022/02/18 03:41:21;;;;;;;6.90;2.15;;;;;;;13.95;42.97;100502.31;5011596;28;20045;-74
2022/02/18 03:43:48;;;;;;;10.30;2.15;;;;;;;13.94;42.97;100511.50;5008380;28;20144;-75
2022/02/18 03:46:15;;;;;;;7.40;2.58;;;;;;;13.93;42.90;100492.53;5010514;28;20069;-74
2022/02/18 03:48:41;;;;;;;9.02;2.10;;;;;;;13.92;43.01;100497.13;5004820;28;20065;-74
2022/02/18 03:51:08;;;;;;;6.97;2.00;;;;;;;13.92;43.20;100491.66;5019079;28;20480;-75
2022/02/18 03:53:34;;;;;;;8.27;2.20;;;;;;;13.91;42.92;100492.69;4997046;28;20096;-74
2022/02/18 03:56:01;;;;;;;7.47;1.90;;;;;;;13.91;43.18;100476.31;5008248;28;20467;-74
2022/02/18 03:58:28;;;;;;;7.85;2.10;;;;;;;13.91;42.97;100481.78;5010233;28;20054;-74
2022/02/18 04:00:54;;;;;;;8.00;2.03;;;;;;;13.91;43.28;100480.91;5010652;28;20137;-74
2022/02/18 04:03:21;;;;;;;8.27;1.95;;;;;;;13.90;43.15;100473.72;5009660;28;20066;-74
2022/02/18 04:05:48;;;;;;;6.80;2.08;;;;;;;13.89;43.21;100475.56;5009293;28;20120;-75
2022/02/18 04:08:15;;;;;;;6.45;1.98;;;;;;;13.90;43.07;100473.72;5002406;28;20050;-74
2022/02/18 04:10:42;;;;;;;9.13;2.45;;;;;;;13.89;43.23;100470.13;4995858;28;20057;-75
2022/02/18 04:13:08;;;;;;;6.35;1.85;;;;;;;13.89;43.37;100461.06;5009337;28;20571;-75
2022/02/18 04:15:35;;;;;;;8.80;2.05;;;;;;;13.89;42.96;100456.47;4995978;28;20308;-74
2022/02/18 04:18:01;;;;;;;6.82;1.60;;;;;;;13.90;43.30;100443.69;5008704;28;20066;-75
2022/02/18 04:20:28;;;;;;;7.95;1.85;;;;;;;13.89;43.30;100434.63;5009623;28;20077;-75
2022/02/18 04:23:15;;;;;;;6.15;1.67;;;;;;;13.88;43.10;100445.69;5009365;28;20572;-74
2022/02/18 04:25:41;;;;;;;7.68;1.60;;;;;;;13.88;43.16;100435.63;5008927;28;20389;-74
2022/02/18 04:28:08;;;;;;;6.80;1.80;;;;;;;13.89;43.12;100423.72;5008182;28;20129;-75
2022/02/18 04:30:34;;;;;;;6.45;1.70;;;;;;;13.88;43.20;100418.41;5009518;28;20096;-74
2022/02/18 04:33:01;;;;;;;7.82;1.95;;;;;;;13.89;43.16;100417.41;5008119;28;20089;-75
2022/02/18 04:35:28;;;;;;;6.80;2.38;;;;;;;13.87;43.15;100412.06;5008655;28;20053;-74
2022/02/18 04:37:55;;;;;;;6.47;1.50;;;;;;;13.87;43.18;100411.19;5009529;28;20100;-75
2022/02/18 04:40:21;;;;;;;5.78;1.90;;;;;;;13.87;43.17;100411.19;5009180;28;20057;-75
2022/02/18 04:42:48;;;;;;;6.55;1.95;;;;;;;13.86;43.23;100396.69;5008615;28;20391;-74
2022/02/18 04:45:14;;;;;;;5.63;1.48;;;;;;;13.86;43.35;100385.78;5014674;28;20112;-75
2022/02/18 04:47:42;;;;;;;5.90;1.42;;;;;;;13.87;43.00;100367.53;5010378;28;20089;-75
2022/02/18 04:50:09;;;;;;;7.22;1.60;;;;;;;13.87;43.00;100356.63;5008256;28;20086;-75
2022/02/18 04:52:37;;;;;;;8.88;2.30;;;;;;;13.85;43.10;100342.25;5003234;28;20532;-76
2022/02/18 04:55:08;;;;;;;8.25;2.22;;;;;;;13.84;43.18;100321.41;5007721;28;20140;-75
2022/02/18 04:57:35;;;;;;;7.10;2.00;;;;;;;13.82;43.14;100317.97;5005041;28;20057;-75
2022/02/18 05:00:04;;;;;;;9.93;2.00;;;;;;;13.82;43.00;100312.53;5008410;28;20062;-75
2022/02/18 05:02:31;;;;;;;9.65;2.40;;;;;;;13.79;43.20;100307.31;5008294;28;20053;-75
2022/02/18 05:04:59;;;;;;;9.73;1.70;;;;;;;13.79;43.01;100301.88;5008141;28;20097;-75
2022/02/18 05:07:25;;;;;;;7.07;1.70;;;;;;;13.77;43.10;100298.41;5008737;28;20136;-75
2022/02/18 05:09:52;;;;;;;7.28;1.85;;;;;;;13.77;43.01;100303.84;5007758;28;20084;-75
2022/02/18 05:12:18;;;;;;;7.47;1.90;;;;;;;13.77;43.31;100306.59;5009174;28;20074;-75
2022/02/18 05:14:45;;;;;;;7.20;2.28;;;;;;;13.75;43.23;100301.28;5008097;28;20053;-75
2022/02/18 05:17:12;;;;;;;8.23;2.00;;;;;;;13.73;42.69;100289.66;5010974;28;20089;-75
2022/02/18 05:19:38;;;;;;;7.85;2.05;;;;;;;13.71;43.20;100270.69;5005410;28;20521;-75
2022/02/18 05:22:05;;;;;;;8.05;2.17;;;;;;;13.69;43.07;100264.50;5008946;28;20455;-75
2022/02/18 05:24:31;;;;;;;7.22;1.92;;;;;;;13.67;42.94;100250.13;5007766;28;20129;-75
2022/02/18 05:26:58;;;;;;;7.97;2.65;;;;;;;13.66;43.01;100248.41;5008557;28;20042;-75
2022/02/18 05:29:25;;;;;;;9.85;2.85;;;;;;;13.64;43.14;100238.63;5006178;28;20050;-75
2022/02/18 05:31:51;;;;;;;8.55;2.03;;;;;;;13.62;43.03;100238.75;5009038;28;20507;-75
2022/02/18 05:34:18;;;;;;;8.55;2.05;;;;;;;13.59;42.82;100219.94;5008224;28;20465;-75
2022/02/18 05:36:44;;;;;;;6.53;1.92;;;;;;;13.58;42.91;100199.13;5007960;28;20077;-75
2022/02/18 05:39:12;;;;;;;7.80;2.20;;;;;;;13.55;42.94;100196.69;5007482;28;20088;-75
2022/02/18 05:41:43;;;;;;;7.20;2.28;;;;;;;13.54;43.06;100188.63;5009355;28;20054;-75
2022/02/18 05:44:10;;;;;;;7.60;2.20;;;;;;;13.54;43.12;100175.84;5007920;28;20062;-75
2022/02/18 05:46:37;;;;;;;5.97;1.75;;;;;;;13.52;42.93;100172.41;5006868;28;20129;-75
2022/02/18 05:49:03;;;;;;;6.25;1.80;;;;;;;13.52;43.09;100179.72;5007377;28;20145;-75
2022/02/18 05:51:30;;;;;;;6.65;1.90;;;;;;;13.50;43.25;100173.56;5005277;28;20054;-75
2022/02/18 05:53:56;;;;;;;8.23;2.55;;;;;;;13.49;43.16;100180.88;5000217;28;20092;-75
2022/02/18 05:56:23;;;;;;;4.55;1.58;;;;;;;13.48;43.19;100178.28;5007658;28;20050;-75
2022/02/18 05:58:49;;;;;;;7.07;2.00;;;;;;;13.49;43.30;100174.56;5008237;28;20081;-75
2022/02/18 06:01:20;;;;;;;7.03;1.85;;;;;;;13.49;43.45;100164.50;5005288;28;20046;-75
2022/02/18 06:03:48;;;;;;;5.15;1.63;;;;;;;13.50;43.17;100162.66;4999498;28;20092;-75
2022/02/18 06:06:15;;;;;;;6.90;1.73;;;;;;;13.50;43.37;100163.50;4991442;28;20074;-75
2022/02/18 06:08:42;;;;;;;7.70;1.80;;;;;;;13.51;43.38;100156.16;4981060;28;20078;-75
2022/02/18 06:11:09;;;;;;;4.25;1.60;;;;;;;13.52;43.30;100149.72;4985042;28;20597;-75
2022/02/18 06:13:36;;;;;;;9.13;2.00;;;;;;;13.51;43.15;100146.13;4984025;28;20054;-74
2022/02/18 06:16:03;;;;;;;6.90;2.40;;;;;;;13.51;43.25;100146.13;4989947;28;20413;-74
2022/02/18 06:18:29;;;;;;;6.65;1.92;;;;;;;13.52;43.46;100130.63;4989353;28;20050;-74
2022/02/18 06:20:56;;;;;;;5.53;1.70;;;;;;;13.53;43.34;100132.34;4992506;28;20562;-74
2022/02/18 06:23:22;;;;;;;4.90;1.77;;;;;;;13.52;43.55;100117.84;4995564;28;20062;-74
2022/02/18 06:29:13;;;;;;;7.95;1.85;;;;;;;13.48;43.62;100093.75;5006223;28;20045;-75
2022/02/18 06:31:39;;;;;;;6.57;1.80;;;;;;;13.51;44.00;100094.31;5011043;28;20124;-75
2022/02/18 06:34:06;;;;;;;6.93;1.92;;;;;;;13.53;43.91;100094.16;5001562;28;20058;-74
2022/02/18 06:36:32;;;;;;;9.55;2.25;;;;;;;13.53;44.13;100084.13;4990766;28;20050;-75
2022/02/18 06:38:59;;;;;;;8.10;2.05;;;;;;;13.51;44.07;100067.03;4990544;28;20262;-75
2022/02/18 06:41:26;;;;;;;8.27;2.40;;;;;;;13.51;44.43;100047.94;4991802;28;20050;-75
2022/02/18 06:43:53;;;;;;;9.82;2.20;;;;;;;13.52;44.39;100033.31;4991333;28;20082;-75
2022/02/18 06:46:23;;;;;;;8.10;1.90;;;;;;;13.54;44.85;100027.72;5000637;28;20477;-76
2022/02/18 06:48:50;;;;;;;9.27;2.00;;;;;;;13.51;44.50;100022.53;4999705;28;20520;-74
2022/02/18 06:51:16;;;;;;;7.30;1.70;;;;;;;13.48;44.61;100015.53;5011345;28;20133;-74
2022/02/18 06:53:43;;;;;;;7.30;1.77;;;;;;;13.48;44.55;100011.94;5001741;28;20042;-74
2022/02/18 06:56:09;;;;;;;5.93;2.03;;;;;;;13.47;44.75;100000.16;4991330;28;20051;-75
2022/02/18 06:58:36;;;;;;;7.68;1.98;;;;;;;13.46;44.64;100001.16;4999646;28;20396;-75
2022/02/18 07:01:03;;;;;;;8.90;2.08;;;;;;;13.46;44.98;99982.06;5011568;28;20128;-75
2022/02/18 07:03:31;;;;;;;6.80;2.40;;;;;;;13.45;44.63;99972.16;5009902;28;20056;-75
2022/02/18 07:06:02;;;;;;;6.80;2.15;;;;;;;13.42;45.06;99967.00;5007996;28;20085;-75
2022/02/18 07:08:38;;;;;;;7.68;2.38;;;;;;;13.39;44.96;99964.56;5006634;28;20137;-76
2022/02/18 07:11:05;;;;;;;5.88;1.77;;;;;;;13.38;45.04;99971.00;5009388;28;20489;-76
2022/02/18 07:13:32;;;;;;;8.00;2.20;;;;;;;13.38;45.47;99959.25;5009714;28;20116;-76
2022/02/18 07:15:59;;;;;;;7.18;2.10;;;;;;;13.37;44.98;99963.84;5009957;28;20050;-76
2022/02/18 07:18:26;;;;;;;8.55;2.22;;;;;;;13.37;45.29;99946.63;5009124;28;20054;-76
2022/02/18 07:20:53;;;;;;;7.40;2.17;;;;;;;13.33;45.54;99938.75;5010731;28;20042;-76
2022/02/18 07:23:20;;;;;;;6.82;1.92;;;;;;;13.33;45.40;99938.75;5009643;28;20050;-76
2022/02/18 07:25:47;;;;;;;7.72;2.08;;;;;;;13.34;45.37;99940.44;5009905;28;20690;-76
2022/02/18 07:28:17;;;;;;;8.02;2.20;;;;;;;13.34;45.70;99934.16;5010775;28;20096;-76
2022/02/18 07:30:44;;;;;;;8.75;2.25;;;;;;;13.35;45.41;99930.38;5009366;28;20049;-76
2022/02/18 07:33:11;;;;;;;8.02;2.15;;;;;;;13.33;45.38;99911.47;5008332;28;20077;-76
2022/02/18 07:35:37;;;;;;;9.45;2.90;;;;;;;13.33;45.55;99911.47;5010553;28;20481;-76
2022/02/18 07:38:04;;;;;;;7.88;2.17;;;;;;;13.33;45.65;99899.72;5009577;28;20685;-77
2022/02/18 07:40:31;;;;;;;7.47;2.22;;;;;;;13.34;45.47;99885.91;5009771;28;20134;-76
2022/02/18 07:42:58;;;;;;;7.15;1.95;;;;;;;13.35;45.75;99878.59;5010006;28;20136;-76
2022/02/18 07:45:24;;;;;;;9.85;2.58;;;;;;;13.34;46.04;99868.72;5008396;28;20089;-77
2022/02/18 07:47:55;;;;;;;10.20;2.75;;;;;;;13.33;46.00;99867.84;5007653;28;20545;-76
2022/02/18 07:50:23;;;;;;;7.32;2.83;;;;;;;13.33;45.76;99862.41;5010168;28;20096;-76
2022/02/18 07:52:50;;;;;;;8.57;2.30;;;;;;;13.32;45.96;99847.06;5009971;28;20057;-76
2022/02/18 07:55:18;;;;;;;5.70;1.77;;;;;;;13.33;46.14;99843.31;5009277;28;20061;-76
2022/02/18 07:57:45;;;;;;;6.72;2.03;;;;;;;13.35;46.26;99829.53;5010492;28;20057;-76
2022/02/18 08:00:12;;;;;;;8.63;2.47;;;;;;;13.35;46.41;99832.25;5008228;28;20177;-76
2022/02/18 08:02:40;;;;;;;9.65;2.13;;;;;;;13.36;46.36;99827.66;5009169;28;20069;-76
2022/02/18 08:05:07;;;;;;;10.38;2.47;;;;;;;13.36;46.59;99816.75;5005869;28;20081;-76
2022/02/18 08:07:34;;;;;;;7.72;2.72;;;;;;;13.38;46.23;99814.75;5010626;28;20084;-77
2022/02/18 08:10:00;;;;;;;6.57;2.03;;;;;;;13.37;46.49;99808.44;5008538;28;20390;-77
2022/02/18 08:12:27;;;;;;;7.68;2.28;;;;;;;13.38;46.70;99803.84;5010272;28;20050;-76
2022/02/18 08:14:53;;;;;;;8.32;2.97;;;;;;;13.39;46.30;99797.38;4998328;28;20054;-77
2022/02/18 08:17:20;;;;;;;7.85;2.08;;;;;;;13.39;46.58;99791.94;5008932;28;20485;-77
2022/02/18 08:19:48;;;;;;;7.70;2.40;;;;;;;13.41;46.61;99789.94;4996963;28;20136;-77
2022/02/18 08:22:17;;;;;;;5.53;2.00;;;;;;;13.40;46.63;99786.34;4991746;28;20116;-77
2022/02/18 08:24:43;;;;;;;6.80;2.22;;;;;;;13.41;46.63;99779.03;4991090;28;20445;-77
2022/02/18 08:27:10;;;;;;;8.23;2.30;;;;;;;13.44;46.45;99781.44;4989725;28;20077;-77
2022/02/18 08:29:36;;;;;;;6.18;2.00;;;;;;;13.43;46.61;99769.66;4990318;28;20493;-76
2022/02/18 08:32:03;;;;;;;8.63;2.55;;;;;;;13.45;46.56;99758.63;4990623;28;20074;-74
2022/02/18 08:34:30;;;;;;;7.18;2.55;;;;;;;13.46;46.60;99766.66;5003306;28;20052;-74
2022/02/18 08:36:56;;;;;;;8.55;2.05;;;;;;;13.48;46.49;99756.47;5017629;28;20049;-75
2022/02/18 08:39:23;;;;;;;7.60;2.40;;;;;;;13.50;46.50;99754.47;5007313;28;20095;-75
2022/02/18 08:41:50;;;;;;;4.88;2.30;;;;;;;13.51;46.63;99741.66;5009765;28;20532;-75
2022/02/18 08:44:16;;;;;;;9.20;2.65;;;;;;;13.52;46.44;99735.19;5008364;28;20050;-75
2022/02/18 08:46:43;;;;;;;8.30;2.30;;;;;;;13.53;46.56;99735.06;5008239;28;20300;-75
2022/02/18 08:49:10;;;;;;;7.03;2.53;;;;;;;13.55;46.75;99733.06;5006977;28;20141;-75
2022/02/18 08:51:38;;;;;;;10.20;2.20;;;;;;;13.56;46.54;99715.69;5012418;28;20093;-75
2022/02/18 08:54:05;;;;;;;10.70;2.30;;;;;;;13.59;46.65;99719.97;5007190;28;20473;-75
2022/02/18 08:56:33;;;;;;;7.05;2.47;;;;;;;13.59;46.70;99718.09;5006826;28;20046;-75
2022/02/18 08:59:01;;;;;;;6.28;2.20;;;;;;;13.63;46.37;99715.94;5010297;28;20162;-75
2022/02/18 09:01:28;;;;;;;6.25;1.83;;;;;;;13.64;46.50;99698.56;5008532;28;20049;-75
2022/02/18 09:03:55;;;;;;;7.07;1.85;;;;;;;13.65;46.67;99706.59;5017793;28;20053;-75
2022/02/18 09:06:22;;;;;;;6.78;2.42;;;;;;;13.68;46.62;99695.38;5008287;28;20074;-75
2022/02/18 09:08:48;;;;;;;7.05;2.38;;;;;;;13.71;46.70;99696.97;5008211;28;20104;-75
2022/02/18 09:11:16;;;;;;;6.28;1.90;;;;;;;13.72;46.59;99690.50;5008612;28;20487;-75
2022/02/18 09:13:43;;;;;;;7.55;2.40;;;;;;;13.73;46.65;99694.94;5006670;28;20086;-75
2022/02/18 09:16:10;;;;;;;7.80;1.70;;;;;;;13.77;46.74;99692.75;5007483;28;20111;-75
2022/02/18 09:18:37;;;;;;;5.90;1.75;;;;;;;13.80;47.00;99676.09;5007996;28;20082;-75
2022/02/18 09:21:04;;;;;;;4.93;1.65;;;;;;;13.80;46.63;99660.59;5008913;28;20108;-76
2022/02/18 09:23:50;;;;;;;5.47;1.75;;;;;;;13.82;46.92;99652.25;5000972;28;20054;-76
2022/02/18 09:26:18;;;;;;;6.05;1.80;;;;;;;13.86;47.11;99653.66;4989013;28;20102;-76
2022/02/18 09:28:44;;;;;;;5.38;1.77;;;;;;;13.87;46.69;99653.50;4986323;28;20065;-76
2022/02/18 09:31:12;;;;;;;7.53;1.98;;;;;;;13.91;46.81;99645.88;4988990;28;20057;-75
2022/02/18 09:33:39;;;;;;;5.55;1.60;;;;;;;13.92;47.01;99651.16;4987839;28;20058;-75
2022/02/18 09:36:07;;;;;;;7.10;1.88;;;;;;;13.96;46.80;99651.72;4988853;28;20410;-75
2022/02/18 09:38:35;;;;;;;6.35;1.98;;;;;;;13.97;47.11;99637.94;4988292;28;20046;-75
2022/02/18 09:41:08;;;;;;;7.07;1.95;;;;;;;13.99;47.22;99632.34;4988662;28;20050;-76
2022/02/18 09:43:36;;;;;;;6.88;1.80;;;;;;;14.01;47.02;99617.50;4988352;28;20489;-76
2022/02/18 09:46:03;;;;;;;7.15;1.85;;;;;;;14.03;47.09;99620.06;4988642;28;20456;-75
2022/02/18 09:48:30;;;;;;;5.35;1.65;;;;;;;14.05;46.84;99604.41;4985674;28;20050;-76
2022/02/18 09:50:57;;;;;;;5.43;1.55;;;;;;;14.05;46.94;99599.81;4988871;28;20054;-75
2022/02/18 09:53:25;;;;;;;6.68;1.65;;;;;;;14.07;47.31;99589.59;4988229;28;20482;-76
2022/02/18 09:55:51;;;;;;;7.35;1.85;;;;;;;14.11;46.98;99581.94;4987645;28;20117;-75
2022/02/18 09:58:24;;;;;;;6.60;1.80;;;;;;;14.10;47.12;99564.72;4986267;28;20050;-76
2022/02/18 10:00:51;;;;;;;4.38;1.48;;;;;;;14.13;47.35;99565.41;4989016;28;20043;-76
2022/02/18 10:03:19;;;;;;;5.10;1.58;;;;;;;14.14;47.43;99562.53;4989783;28;20117;-75
2022/02/18 10:05:46;;;;;;;5.53;1.92;;;;;;;14.15;47.49;99557.94;4986611;28;20078;-75
2022/02/18 10:08:15;;;;;;;5.35;1.55;;;;;;;14.18;47.20;99558.47;4987738;28;20054;-75
2022/02/18 10:10:56;;;;;;;3.63;1.42;;;;;;;14.19;47.25;99552.00;4988383;28;20066;-76
2022/02/18 10:13:34;;;;;;;4.45;1.55;;;;;;;14.23;47.69;99556.16;4992536;28;20077;-76
2022/02/18 10:16:28;;;;;;;4.45;1.40;;;;;;;14.25;48.25;99548.63;5006853;28;20058;-75
2022/02/18 10:18:59;;;;;;;6.88;1.60;;;;;;;14.25;47.98;99534.97;5006633;28;20064;-76
2022/02/18 10:21:28;;;;;;;4.63;1.50;;;;;;;14.28;48.23;99548.31;5006563;28;20062;-75
2022/02/18 10:24:08;;;;;;;3.60;1.40;;;;;;;14.31;48.39;99541.69;5007139;28;20112;-75
2022/02/18 10:26:38;;;;;;;4.53;1.25;;;;;;;14.32;47.79;99543.41;5006198;28;20622;-76
2022/02/18 10:29:06;;;;;;;5.15;1.98;;;;;;;14.34;47.62;99534.03;5007043;28;20057;-75
2022/02/18 10:31:33;;;;;;;3.75;1.20;;;;;;;14.36;47.57;99526.56;5006377;28;20054;-75
2022/02/18 10:34:05;;;;;;;2.63;1.08;;;;;;;14.41;48.08;99520.66;5007564;28;20061;-75
2022/02/18 10:36:35;;;;;;;3.45;1.17;;;;;;;14.43;48.54;99518.59;5009122;28;20046;-76
2022/02/18 10:39:33;;;;;;;3.38;1.40;;;;;;;14.43;48.40;99504.94;4992250;28;20116;-75
2022/02/18 10:42:02;;;;;;;4.50;1.30;;;;;;;14.44;47.92;99506.66;5004610;28;20057;-76
2022/02/18 10:44:31;;;;;;;2.85;1.30;;;;;;;14.48;48.18;99499.88;5007140;28;20116;-76
2022/02/18 10:47:05;;;;;;;4.35;1.45;;;;;;;14.48;47.91;99486.22;5007712;28;20054;-76
2022/02/18 10:49:36;;;;;;;2.70;1.10;;;;;;;14.53;48.32;99488.47;5006483;28;20060;-76
2022/02/18 10:52:55;;;;;;;3.10;1.38;;;;;;;14.56;48.31;99475.34;5008530;28;20050;-75
2022/02/18 10:55:22;;;;;;;4.43;1.20;;;;;;;14.55;48.12;99470.03;5003866;28;20042;-76
2022/02/18 10:57:48;;;;;;;2.97;1.00;;;;;;;14.59;48.10;99474.16;5008135;28;20077;-76
2022/02/18 11:00:16;;;;;;;2.78;1.10;;;;;;;14.63;48.01;99464.63;5008628;28;20050;-76
2022/02/18 11:02:50;;;;;;;3.13;0.98;;;;;;;14.67;47.99;99449.63;5011225;28;20050;-75
2022/02/18 11:05:22;;;;;;;3.28;1.08;;;;;;;14.70;48.63;99447.44;4987401;28;20505;-76
2022/02/18 11:07:56;;;;;;;3.13;1.10;;;;;;;14.73;48.30;99440.78;4996665;28;20156;-77
2022/02/18 11:10:37;;;;;;;5.57;1.50;;;;;;;14.78;48.66;99432.94;5013532;28;20042;-76
2022/02/18 11:13:05;;;;;;;2.97;1.05;;;;;;;14.77;48.12;99433.97;5004240;28;20050;-76
2022/02/18 11:15:34;;;;;;;2.95;1.05;;;;;;;14.80;48.17;99426.31;4998448;28;20080;-76
2022/02/18 11:18:01;;;;;;;3.08;1.10;;;;;;;14.82;48.31;99409.75;5001479;28;20042;-76
2022/02/18 11:20:28;;;;;;;3.85;1.20;;;;;;;14.84;47.96;99407.69;4998249;28;20128;-76
2022/02/18 11:22:57;;;;;;;1.92;0.85;;;;;;;14.89;47.77;99404.47;5009228;28;20562;-77
2022/02/18 11:25:24;;;;;;;2.10;0.90;;;;;;;14.93;48.17;99392.19;4990259;28;20137;-76
2022/02/18 11:27:52;;;;;;;2.08;0.80;;;;;;;14.95;48.15;99377.34;4984730;28;20113;-76
2022/02/18 11:30:19;;;;;;;1.13;0.57;;;;;;;14.99;48.39;99365.03;4990778;28;20111;-76
2022/02/18 11:33:15;;;;;;;1.25;0.50;;;;;;;15.09;48.65;99348.50;4992275;28;20054;-76
2022/02/18 11:36:00;;;;;;;1.25;0.60;;;;;;;15.11;48.91;99339.09;4998650;28;20104;-76